createdAt,value
2018-08-31T00:01:02.118Z,25.57
2018-08-31T00:04:52.050Z,23.80
2018-08-31T00:07:34.134Z,24.10
2018-08-31T00:12:45.242Z,26.37
2018-08-31T00:15:14.734Z,27.67
2018-08-31T00:17:44.948Z,26.70
2018-08-31T00:20:14.986Z,23.57
2018-08-31T00:22:54.374Z,26.40
2018-08-31T00:26:14.783Z,28.47
2018-08-31T00:29:51.362Z,21.60
2018-08-31T00:33:02.434Z,27.03
2018-08-31T00:35:41.798Z,24.80
2018-08-31T00:38:59.450Z,24.77
2018-08-31T00:43:53.328Z,29.60
2018-08-31T00:46:22.800Z,25.50
2018-08-31T00:48:52.649Z,35.90
2018-08-31T00:51:22.473Z,30.07
2018-08-31T00:53:56.675Z,28.70
2018-08-31T00:56:26.406Z,27.57
2018-08-31T00:58:57.929Z,40.13
2018-08-31T01:01:29.594Z,25.37
2018-08-31T01:03:59.137Z,33.27
2018-08-31T01:06:28.662Z,30.90
2018-08-31T01:09:04.538Z,27.90
2018-08-31T01:11:34.002Z,27.47
2018-08-31T01:14:09.950Z,34.60
2018-08-31T01:16:40.542Z,27.30
2018-08-31T01:19:10.382Z,31.53
2018-08-31T01:21:48.573Z,31.90
2018-08-31T01:24:22.150Z,30.50
2018-08-31T01:26:51.982Z,26.17
2018-08-31T01:29:22.678Z,26.60
2018-08-31T01:31:52.386Z,26.80
2018-08-31T01:34:23.122Z,23.37
2018-08-31T01:36:53.014Z,23.90
2018-08-31T01:39:22.817Z,27.20
2018-08-31T01:42:00.825Z,32.63
2018-08-31T01:44:30.614Z,26.70
2018-08-31T01:47:06.013Z,26.43
2018-08-31T01:49:38.163Z,27.70
2018-08-31T01:52:30.987Z,23.87
2018-08-31T01:55:04.042Z,28.07
2018-08-31T01:57:34.665Z,25.60
2018-08-31T02:00:25.666Z,23.23
2018-08-31T02:03:34.142Z,26.23
2018-08-31T02:06:07.410Z,21.80
2018-08-31T02:08:50.338Z,21.90
2018-08-31T02:11:20.263Z,26.57
2018-08-31T02:13:52.054Z,26.07
2018-08-31T02:16:22.890Z,26.60
2018-08-31T02:18:52.758Z,29.20
2018-08-31T02:21:22.562Z,25.57
2018-08-31T02:23:53.498Z,23.63
2018-08-31T02:26:24.334Z,21.83
2018-08-31T02:28:56.146Z,23.20
2018-08-31T02:31:31.434Z,24.93
2018-08-31T02:34:01.998Z,23.80
2018-08-31T02:36:31.474Z,25.47
2018-08-31T02:39:02.252Z,25.53
2018-08-31T02:41:33.756Z,23.13
2018-08-31T02:44:05.542Z,27.07
2018-08-31T02:46:37.362Z,24.13
2018-08-31T02:49:12.054Z,23.00
2018-08-31T02:51:47.466Z,20.83
2018-08-31T02:54:21.058Z,22.33
2018-08-31T02:56:57.014Z,25.27
2018-08-31T02:59:26.918Z,24.67
2018-08-31T03:02:01.407Z,23.70
2018-08-31T03:04:31.978Z,20.97
2018-08-31T03:07:03.706Z,23.33
2018-08-31T03:09:33.290Z,26.20
2018-08-31T03:12:02.822Z,22.70
2018-08-31T03:14:38.658Z,26.73
2018-08-31T03:17:08.507Z,25.33
2018-08-31T03:19:39.206Z,27.40
2018-08-31T03:22:09.914Z,32.00
2018-08-31T03:24:42.534Z,26.97
2018-08-31T03:27:14.374Z,27.17
2018-08-31T03:29:44.205Z,28.40
2018-08-31T03:32:30.001Z,31.10
2018-08-31T03:35:03.800Z,26.07
2018-08-31T03:37:33.601Z,32.67
2018-08-31T03:40:05.569Z,33.37
2018-08-31T03:42:36.205Z,39.40
2018-08-31T03:45:06.038Z,35.27
2018-08-31T03:51:05.961Z,33.10
2018-08-31T03:53:51.141Z,32.10
2018-08-31T03:56:43.665Z,32.83
2018-08-31T04:00:41.546Z,27.57
2018-08-31T04:06:03.085Z,31.70
2018-08-31T04:11:26.269Z,27.20
2018-08-31T04:17:16.421Z,26.43
2018-08-31T04:19:46.693Z,23.93
2018-08-31T04:22:20.369Z,26.77
2018-08-31T04:24:52.246Z,24.33
2018-08-31T04:27:22.853Z,26.23
2018-08-31T04:29:52.613Z,28.13
2018-08-31T04:32:22.489Z,31.67
2018-08-31T04:34:58.069Z,25.03
2018-08-31T04:37:27.934Z,25.97
2018-08-31T04:39:58.605Z,22.03
2018-08-31T04:42:30.326Z,24.20
2018-08-31T04:45:00.162Z,34.77
2018-08-31T04:47:29.770Z,25.83
2018-08-31T04:49:59.577Z,22.10
2018-08-31T04:52:30.126Z,23.33
2018-08-31T04:55:03.194Z,31.47
2018-08-31T04:57:33.078Z,19.00
2018-08-31T05:00:02.710Z,28.13
2018-08-31T05:02:37.689Z,26.10
2018-08-31T05:05:08.471Z,24.80
2018-08-31T05:07:38.277Z,32.20
2018-08-31T05:10:10.154Z,24.93
2018-08-31T05:12:40.733Z,24.30
2018-08-31T05:15:10.294Z,26.00
2018-08-31T05:17:43.326Z,26.83
2018-08-31T05:20:13.998Z,28.53
2018-08-31T05:22:44.781Z,30.80
2018-08-31T05:25:14.316Z,34.83
2018-08-31T05:27:45.094Z,42.63
2018-08-31T05:30:14.921Z,29.70
2018-08-31T05:32:44.837Z,26.47
2018-08-31T05:35:16.390Z,25.40
2018-08-31T05:37:47.422Z,26.13
2018-08-31T05:40:19.214Z,27.80
2018-08-31T05:42:57.245Z,24.10
2018-08-31T05:45:27.894Z,22.03
2018-08-31T05:47:58.498Z,30.93
2018-08-31T05:50:28.310Z,23.33
2018-08-31T05:52:58.953Z,16.30
2018-08-31T05:55:28.453Z,26.93
2018-08-31T05:58:07.274Z,17.53
2018-08-31T06:00:40.358Z,20.20
2018-08-31T06:03:10.098Z,18.10
2018-08-31T06:05:43.582Z,15.73
2018-08-31T06:08:14.066Z,18.43
2018-08-31T06:10:56.105Z,16.17
2018-08-31T06:13:25.918Z,19.10
2018-08-31T06:15:55.457Z,17.23
2018-08-31T06:18:27.205Z,18.23
2018-08-31T06:20:58.080Z,18.77
2018-08-31T06:23:29.817Z,22.10
2018-08-31T06:25:59.605Z,19.40
2018-08-31T06:28:30.433Z,21.20
2018-08-31T06:31:00.345Z,20.70
2018-08-31T06:33:31.993Z,20.77
2018-08-31T06:36:04.525Z,18.43
2018-08-31T06:38:35.225Z,19.93
2018-08-31T06:41:05.111Z,19.77
2018-08-31T06:43:46.937Z,22.97
2018-08-31T06:46:16.805Z,23.53
2018-08-31T06:48:52.141Z,22.90
2018-08-31T06:51:29.609Z,22.10
2018-08-31T06:54:00.341Z,19.50
2018-08-31T06:56:29.958Z,33.07
2018-08-31T06:59:05.465Z,22.93
2018-08-31T07:01:41.889Z,21.30
2018-08-31T07:04:12.726Z,32.03
2018-08-31T07:07:03.377Z,26.73
2018-08-31T07:09:59.293Z,33.87
2018-08-31T07:12:31.162Z,14.70
2018-08-31T07:15:27.589Z,21.90
2018-08-31T07:17:59.398Z,33.37
2018-08-31T07:20:30.277Z,19.20
2018-08-31T07:23:02.069Z,20.03
2018-08-31T07:25:35.589Z,23.37
2018-08-31T07:28:13.649Z,28.23
2018-08-31T07:30:45.501Z,20.73
2018-08-31T07:33:28.201Z,21.70
2018-08-31T07:36:02.285Z,21.03
2018-08-31T07:38:33.917Z,15.73
2018-08-31T07:41:13.209Z,19.83
2018-08-31T07:43:42.993Z,18.67
2018-08-31T07:46:19.853Z,23.43
2018-08-31T07:49:00.382Z,17.73
2018-08-31T07:51:30.033Z,17.77
2018-08-31T07:54:00.779Z,20.50
2018-08-31T07:56:30.350Z,13.83
2018-08-31T07:59:03.261Z,12.10
2018-08-31T08:01:34.826Z,18.10
2018-08-31T08:04:04.497Z,21.77
2018-08-31T08:06:59.698Z,18.87
2018-08-31T08:09:29.513Z,18.23
2018-08-31T08:12:22.541Z,16.13
2018-08-31T08:14:55.666Z,12.40
2018-08-31T08:17:29.038Z,22.60
2018-08-31T08:20:09.470Z,15.20
2018-08-31T08:22:39.263Z,17.10
2018-08-31T08:25:08.797Z,17.07
2018-08-31T08:27:38.505Z,16.90
2018-08-31T08:30:16.606Z,15.47
2018-08-31T08:32:46.370Z,17.93
2018-08-31T08:35:18.146Z,13.40
2018-08-31T08:37:48.945Z,12.70
2018-08-31T08:40:24.518Z,21.57
2018-08-31T08:42:54.303Z,10.20
2018-08-31T08:45:29.943Z,23.47
2018-08-31T08:48:07.618Z,18.20
2018-08-31T08:50:38.329Z,15.43
2018-08-31T08:53:18.830Z,14.77
2018-08-31T08:55:56.814Z,18.20
2018-08-31T08:58:27.603Z,17.10
2018-08-31T09:00:58.129Z,13.97
2018-08-31T09:03:29.714Z,12.17
2018-08-31T09:06:05.028Z,14.87
2018-08-31T09:08:44.790Z,15.30
2018-08-31T09:11:21.961Z,13.37
2018-08-31T09:13:52.773Z,15.30
2018-08-31T09:16:24.341Z,14.00
2018-08-31T09:18:54.026Z,15.33
2018-08-31T09:21:28.785Z,14.90
2018-08-31T09:24:04.402Z,11.23
2018-08-31T09:26:44.977Z,16.23
2018-08-31T09:29:19.678Z,16.77
2018-08-31T09:31:50.473Z,10.47
2018-08-31T09:34:20.277Z,19.27
2018-08-31T09:36:51.061Z,12.23
2018-08-31T09:39:20.837Z,18.40
2018-08-31T09:41:52.665Z,10.93
2018-08-31T09:44:22.433Z,9.80
2018-08-31T09:46:52.281Z,21.53
2018-08-31T09:49:28.485Z,10.70
2018-08-31T09:52:07.929Z,21.07
2018-08-31T09:54:47.773Z,10.53
2018-08-31T09:57:18.341Z,12.70
2018-08-31T09:59:49.083Z,14.87
2018-08-31T10:02:24.951Z,21.83
2018-08-31T10:04:58.124Z,12.67
2018-08-31T10:07:28.908Z,15.23
2018-08-31T10:09:59.657Z,16.93
2018-08-31T10:12:29.217Z,16.70
2018-08-31T10:15:02.489Z,10.33
2018-08-31T10:17:33.273Z,13.13
2018-08-31T10:20:03.049Z,11.90
2018-08-31T10:22:37.392Z,11.57
2018-08-31T10:25:25.744Z,12.70
2018-08-31T10:28:14.644Z,11.30
2018-08-31T10:30:52.349Z,20.87
2018-08-31T10:33:23.094Z,15.13
2018-08-31T10:35:57.392Z,11.90
2018-08-31T10:38:28.132Z,11.90
2018-08-31T10:41:01.928Z,10.77
2018-08-31T10:46:33.691Z,10.53
2018-08-31T10:49:03.439Z,13.97
2018-08-31T10:51:38.736Z,11.43
2018-08-31T10:54:11.821Z,11.77
2018-08-31T10:56:41.588Z,12.63
2018-08-31T10:59:21.741Z,12.27
2018-08-31T11:02:04.070Z,17.20
2018-08-31T11:04:34.125Z,8.93
2018-08-31T11:07:03.652Z,10.13
2018-08-31T11:09:34.355Z,13.23
2018-08-31T11:12:04.113Z,12.60
2018-08-31T11:14:37.021Z,11.10
2018-08-31T11:17:10.361Z,15.00
2018-08-31T11:19:41.233Z,11.37
2018-08-31T11:22:16.733Z,11.60
2018-08-31T11:25:02.997Z,11.97
2018-08-31T11:27:37.138Z,11.20
2018-08-31T11:30:10.657Z,11.93
2018-08-31T11:32:52.445Z,12.97
2018-08-31T11:35:22.229Z,13.10
2018-08-31T11:37:54.017Z,11.70
2018-08-31T11:40:24.813Z,15.07
2018-08-31T11:42:55.471Z,11.50
2018-08-31T11:45:27.789Z,10.43
2018-08-31T11:47:57.597Z,11.67
2018-08-31T11:50:28.465Z,10.80
2018-08-31T11:53:02.948Z,13.63
2018-08-31T11:55:39.133Z,13.43
2018-08-31T11:58:18.345Z,15.00
2018-08-31T12:00:50.120Z,10.70
2018-08-31T12:03:19.689Z,14.07
2018-08-31T12:05:49.477Z,12.33
2018-08-31T12:08:20.037Z,14.60
2018-08-31T12:10:49.785Z,12.10
2018-08-31T12:13:21.329Z,16.03
2018-08-31T12:15:51.173Z,12.23
2018-08-31T12:18:23.069Z,17.90
2018-08-31T12:20:53.670Z,20.70
2018-08-31T12:23:23.341Z,15.43
2018-08-31T12:25:52.964Z,12.10
2018-08-31T12:28:22.765Z,13.53
2018-08-31T12:30:53.365Z,10.63
2018-08-31T12:33:27.785Z,13.27
2018-08-31T12:36:00.923Z,10.67
2018-08-31T12:38:40.549Z,10.67
2018-08-31T12:41:12.336Z,14.57
2018-08-31T12:43:42.949Z,15.10
2018-08-31T12:46:12.725Z,10.93
2018-08-31T12:48:54.020Z,14.60
2018-08-31T12:51:27.589Z,14.07
2018-08-31T12:54:01.073Z,15.73
2018-08-31T12:56:35.029Z,13.80
2018-08-31T12:59:05.665Z,12.90
2018-08-31T13:01:36.200Z,14.37
2018-08-31T13:04:07.317Z,18.03
2018-08-31T13:06:40.545Z,14.20
2018-08-31T13:09:26.720Z,18.80
2018-08-31T13:12:00.308Z,20.87
2018-08-31T13:14:32.085Z,15.87
2018-08-31T13:17:03.757Z,17.13
2018-08-31T13:19:38.265Z,15.17
2018-08-31T13:22:08.193Z,20.23
2018-08-31T13:24:40.013Z,16.23
2018-08-31T13:27:19.750Z,17.07
2018-08-31T13:29:50.577Z,15.60
2018-08-31T13:32:23.645Z,12.60
2018-08-31T13:34:54.513Z,10.60
2018-08-31T13:37:24.342Z,13.60
2018-08-31T13:39:57.525Z,13.50
2018-08-31T13:42:27.125Z,15.63
2018-08-31T13:44:57.585Z,13.30
2018-08-31T13:47:27.057Z,14.27
2018-08-31T13:49:56.845Z,11.00
2018-08-31T13:52:26.720Z,13.27
2018-08-31T13:54:56.589Z,18.03
2018-08-31T13:57:27.441Z,15.93
2018-08-31T13:59:57.333Z,14.97
2018-08-31T14:02:31.045Z,13.60
2018-08-31T14:05:00.832Z,19.43
2018-08-31T14:07:30.685Z,17.77
2018-08-31T14:10:00.265Z,17.73
2018-08-31T14:12:29.769Z,14.87
2018-08-31T14:14:59.476Z,15.27
2018-08-31T14:17:36.226Z,15.17
2018-08-31T14:20:16.525Z,14.40
2018-08-31T14:22:46.296Z,16.00
2018-08-31T14:25:18.068Z,22.00
2018-08-31T14:27:47.917Z,17.97
2018-08-31T14:30:19.733Z,18.50
2018-08-31T14:32:55.121Z,20.93
2018-08-31T14:35:26.729Z,20.73
2018-08-31T14:38:05.868Z,19.53
2018-08-31T14:40:41.313Z,17.13
2018-08-31T14:43:24.930Z,21.23
2018-08-31T14:45:55.769Z,21.87
2018-08-31T14:48:34.926Z,19.73
2018-08-31T14:51:14.920Z,18.00
2018-08-31T14:53:48.361Z,17.83
2018-08-31T14:56:25.704Z,19.80
2018-08-31T14:59:19.526Z,17.87
2018-08-31T15:01:50.061Z,17.70
2018-08-31T15:04:19.942Z,18.50
2018-08-31T15:07:10.329Z,14.17
2018-08-31T15:09:39.901Z,24.50
2018-08-31T15:12:09.490Z,19.77
2018-08-31T15:14:45.801Z,12.40
2018-08-31T15:17:17.469Z,14.80
2018-08-31T15:19:47.034Z,18.33
2018-08-31T15:22:16.467Z,13.33
2018-08-31T15:24:45.913Z,13.80
2018-08-31T15:27:15.337Z,16.33
2018-08-31T15:29:44.876Z,16.90
2018-08-31T15:32:14.380Z,15.07
2018-08-31T15:34:45.049Z,15.27
2018-08-31T15:37:14.608Z,16.50
2018-08-31T15:39:45.053Z,14.83
2018-08-31T15:42:14.554Z,17.30
2018-08-31T15:44:44.972Z,21.40
2018-08-31T15:47:14.504Z,14.30
2018-08-31T15:49:47.330Z,15.53
2018-08-31T15:52:17.004Z,20.70
2018-08-31T15:54:46.493Z,18.20
2018-08-31T15:57:15.925Z,14.17
2018-08-31T15:59:47.457Z,16.67
2018-08-31T16:02:16.951Z,14.27
2018-08-31T16:04:47.477Z,17.27
2018-08-31T16:07:16.968Z,15.50
2018-08-31T16:09:46.416Z,16.07
2018-08-31T16:12:15.848Z,12.20
2018-08-31T16:14:45.388Z,16.40
2018-08-31T16:17:19.556Z,14.10
2018-08-31T16:19:49.121Z,12.50
2018-08-31T16:22:24.908Z,15.93
2018-08-31T16:24:56.569Z,13.73
2018-08-31T16:27:26.089Z,16.30
2018-08-31T16:29:55.613Z,17.20
2018-08-31T16:32:26.077Z,15.30
2018-08-31T16:34:55.557Z,22.07
2018-08-31T16:37:25.236Z,15.33
2018-08-31T16:39:56.825Z,15.13
2018-08-31T16:42:30.180Z,16.30
2018-08-31T16:45:00.633Z,16.57
2018-08-31T16:47:30.339Z,10.70
2018-08-31T16:50:00.856Z,14.90
2018-08-31T16:52:33.596Z,12.27
2018-08-31T16:57:43.477Z,13.03
2018-08-31T17:00:12.930Z,12.23
2018-08-31T17:02:43.444Z,13.53
2018-08-31T17:05:12.884Z,16.53
2018-08-31T17:07:47.114Z,16.50
2018-08-31T17:10:16.685Z,12.43
2018-08-31T17:12:47.137Z,22.20
2018-08-31T17:15:16.669Z,15.83
2018-08-31T17:17:48.461Z,12.83
2018-08-31T17:20:17.967Z,16.60
2018-08-31T17:22:49.477Z,16.33
2018-08-31T17:25:21.004Z,16.20
2018-08-31T17:27:56.917Z,21.00
2018-08-31T17:30:30.128Z,17.40
2018-08-31T17:33:07.189Z,21.90
2018-08-31T17:35:43.148Z,20.10
2018-08-31T17:38:12.844Z,18.87
2018-08-31T17:40:44.593Z,23.23
2018-08-31T17:43:14.545Z,16.83
2018-08-31T17:45:45.152Z,19.87
2018-08-31T17:48:14.764Z,17.90
2018-08-31T17:50:44.320Z,17.83
2018-08-31T17:53:15.904Z,19.50
2018-08-31T17:55:47.440Z,21.60
2018-08-31T17:58:23.320Z,22.10
2018-08-31T18:00:52.852Z,19.53
2018-08-31T18:03:23.416Z,17.30
2018-08-31T18:05:53.244Z,27.33
2018-08-31T18:08:24.888Z,27.00
2018-08-31T18:10:56.656Z,20.10
2018-08-31T18:13:26.236Z,16.03
2018-08-31T18:15:56.911Z,16.17
2018-08-31T18:21:04.424Z,21.77
2018-08-31T18:25:59.805Z,18.23
2018-08-31T18:28:33.919Z,18.03
2018-08-31T18:31:03.499Z,16.77
2018-08-31T18:33:33.043Z,17.13
2018-08-31T18:36:02.568Z,19.43
2018-08-31T18:38:40.088Z,17.03
2018-08-31T18:41:09.892Z,18.50
2018-08-31T18:43:41.496Z,24.93
2018-08-31T18:46:14.114Z,18.90
2018-08-31T18:48:44.628Z,18.17
2018-08-31T18:51:24.428Z,20.30
2018-08-31T18:53:53.913Z,21.37
2018-08-31T18:56:24.400Z,23.90
2018-08-31T18:58:55.836Z,16.90
2018-08-31T19:01:26.332Z,15.77
2018-08-31T19:03:57.912Z,19.23
2018-08-31T19:06:28.436Z,19.37
2018-08-31T19:08:57.929Z,16.57
2018-08-31T19:11:28.436Z,18.37
2018-08-31T19:13:57.989Z,16.93
2018-08-31T19:16:27.684Z,14.07
2018-08-31T19:18:58.117Z,32.77
2018-08-31T19:21:27.721Z,18.23
2018-08-31T19:23:58.488Z,20.33
2018-08-31T19:26:32.758Z,23.60
2018-08-31T19:29:03.321Z,19.93
2018-08-31T19:31:32.826Z,18.17
2018-08-31T19:34:03.372Z,22.57
2018-08-31T19:36:40.504Z,17.77
2018-08-31T19:39:12.064Z,19.57
2018-08-31T19:41:46.529Z,17.20
2018-08-31T19:44:17.221Z,22.77
2018-08-31T19:46:46.779Z,12.40
2018-08-31T19:49:19.303Z,17.73
2018-08-31T19:51:50.854Z,23.73
2018-08-31T19:54:23.872Z,16.43
2018-08-31T19:56:54.357Z,14.23
2018-08-31T19:59:23.836Z,10.40
2018-08-31T20:01:57.852Z,13.57
2018-08-31T20:04:28.525Z,10.50
2018-08-31T20:07:02.944Z,10.87
2018-08-31T20:09:32.533Z,12.37
2018-08-31T20:12:03.014Z,13.53
2018-08-31T20:14:37.978Z,10.03
2018-08-31T20:17:12.028Z,13.60
2018-08-31T20:19:46.917Z,14.03
2018-08-31T20:22:17.405Z,18.67
2018-08-31T20:24:46.976Z,14.00
2018-08-31T20:27:18.568Z,12.83
2018-08-31T20:29:49.168Z,7.93
2018-08-31T20:32:22.076Z,7.50
2018-08-31T20:34:55.780Z,13.67
2018-08-31T20:37:25.368Z,10.73
2018-08-31T20:39:58.480Z,12.67
2018-08-31T20:42:29.076Z,9.57
2018-08-31T20:45:02.143Z,10.30
2018-08-31T20:47:33.656Z,19.40
2018-08-31T20:50:03.443Z,11.17
2018-08-31T20:52:33.268Z,12.87
2018-08-31T20:55:04.216Z,9.77
2018-08-31T20:57:34.872Z,12.70
2018-08-31T21:00:04.440Z,16.10
2018-08-31T21:02:44.424Z,17.53
2018-08-31T21:05:14.019Z,22.23
2018-08-31T21:07:45.694Z,14.00
2018-08-31T21:10:23.383Z,16.93
2018-08-31T21:12:53.176Z,11.93
2018-08-31T21:15:22.700Z,11.90
2018-08-31T21:17:53.285Z,12.43
2018-08-31T21:20:22.764Z,18.13
2018-08-31T21:22:52.260Z,24.57
2018-08-31T21:25:22.773Z,9.70
2018-08-31T21:27:52.244Z,10.43
2018-08-31T21:30:21.765Z,10.63
2018-08-31T21:32:51.243Z,13.00
2018-08-31T21:35:21.751Z,12.57
2018-08-31T21:37:52.294Z,9.63
2018-08-31T21:40:21.732Z,9.93
2018-08-31T21:42:51.443Z,9.17
2018-08-31T21:45:21.067Z,11.07
2018-08-31T21:47:50.824Z,26.30
2018-08-31T21:50:20.488Z,8.97
2018-08-31T21:52:54.927Z,16.33
2018-08-31T21:55:32.279Z,12.07
2018-08-31T21:58:05.515Z,7.17
2018-08-31T22:00:41.755Z,11.83
2018-08-31T22:03:12.767Z,12.73
2018-08-31T22:06:01.279Z,14.43
2018-08-31T22:08:32.787Z,14.60
2018-08-31T22:11:03.556Z,10.20
2018-08-31T22:13:51.707Z,12.53
2018-08-31T22:16:23.324Z,10.20
2018-08-31T22:18:53.067Z,12.63
2018-08-31T22:21:23.699Z,15.40
2018-08-31T22:23:59.271Z,19.90
2018-08-31T22:26:30.896Z,17.17
2018-08-31T22:29:05.472Z,13.53
2018-08-31T22:31:37.091Z,11.23
2018-08-31T22:34:10.147Z,14.97
2018-08-31T22:36:42.911Z,12.43
2018-08-31T22:39:12.383Z,21.30
2018-08-31T22:41:41.907Z,16.40
2018-08-31T22:44:12.494Z,16.27
2018-08-31T22:46:42.004Z,11.93
2018-08-31T22:49:15.859Z,15.07
2018-08-31T22:51:47.467Z,18.60
2018-08-31T22:54:18.951Z,10.90
2018-08-31T22:56:54.431Z,9.77
2018-08-31T22:59:23.981Z,11.50
2018-08-31T23:01:58.047Z,16.70
2018-08-31T23:04:30.867Z,14.50
2018-08-31T23:07:02.387Z,11.83
2018-08-31T23:09:32.778Z,9.67
2018-08-31T23:12:08.811Z,9.27
2018-08-31T23:14:46.499Z,10.57
2018-08-31T23:17:21.431Z,9.63
2018-08-31T23:19:51.000Z,9.33
2018-08-31T23:22:21.544Z,9.87
2018-08-31T23:24:56.567Z,9.03
2018-08-31T23:27:27.567Z,14.50
2018-08-31T23:29:59.135Z,19.10
2018-08-31T23:32:29.835Z,14.07
2018-08-31T23:34:59.424Z,9.47
2018-08-31T23:37:39.764Z,17.40
2018-08-31T23:40:09.191Z,16.33
2018-08-31T23:42:38.648Z,10.63
2018-08-31T23:45:08.140Z,9.57
2018-08-31T23:47:37.591Z,14.57
2018-08-31T23:50:08.172Z,16.30
2018-08-31T23:52:38.619Z,16.77
2018-08-31T23:55:08.095Z,17.20
2018-08-31T23:57:38.763Z,11.13
